sensor_id;sensor_type;location;lat;lon;timestamp;pressure;altitude;pressure_sealevel;temperature;humidity
50702;BME280;36670;50.094;8.496;2023-05-03T00:00:02;101439.72;;;10.22;50.76
50702;BME280;36670;50.094;8.496;2023-05-03T00:02:32;101430.59;;;9.90;51.27
50702;BME280;36670;50.094;8.496;2023-05-03T00:04:57;101441.69;;;10.15;50.62
50702;BME280;36670;50.094;8.496;2023-05-03T00:07:23;101437.88;;;10.16;51.00
50702;BME280;36670;50.094;8.496;2023-05-03T00:09:48;101436.00;;;10.10;51.05
50702;BME280;36670;50.094;8.496;2023-05-03T00:12:14;101434.88;;;9.79;52.05
50702;BME280;36670;50.094;8.496;2023-05-03T00:14:39;101436.03;;;9.65;52.35
50702;BME280;36670;50.094;8.496;2023-05-03T00:17:04;101424.22;;;9.89;51.51
50702;BME280;36670;50.094;8.496;2023-05-03T00:19:30;101419.56;;;9.90;51.71
50702;BME280;36670;50.094;8.496;2023-05-03T00:21:58;101421.53;;;9.83;51.48
50702;BME280;36670;50.094;8.496;2023-05-03T00:24:23;101420.66;;;9.82;51.81
50702;BME280;36670;50.094;8.496;2023-05-03T00:26:48;101418.53;;;9.84;51.66
50702;BME280;36670;50.094;8.496;2023-05-03T00:29:14;101417.88;;;9.44;52.74
50702;BME280;36670;50.094;8.496;2023-05-03T00:31:42;101409.41;;;9.32;52.75
50702;BME280;36670;50.094;8.496;2023-05-03T00:34:07;101410.88;;;9.41;52.90
50702;BME280;36670;50.094;8.496;2023-05-03T00:36:33;101413.66;;;9.34;52.69
50702;BME280;36670;50.094;8.496;2023-05-03T00:38:58;101409.63;;;9.37;52.60
50702;BME280;36670;50.094;8.496;2023-05-03T00:41:23;101413.22;;;9.37;52.63
50702;BME280;36670;50.094;8.496;2023-05-03T00:43:48;101407.03;;;9.42;52.18
50702;BME280;36670;50.094;8.496;2023-05-03T00:46:14;101398.94;;;9.54;51.88
50702;BME280;36670;50.094;8.496;2023-05-03T00:48:40;101403.56;;;9.60;51.79
50702;BME280;36670;50.094;8.496;2023-05-03T00:51:06;101397.91;;;9.48;51.89
50702;BME280;36670;50.094;8.496;2023-05-03T00:53:32;101404.59;;;9.20;52.94
50702;BME280;36670;50.094;8.496;2023-05-03T00:55:58;101400.88;;;9.53;52.07
50702;BME280;36670;50.094;8.496;2023-05-03T00:58:24;101395.84;;;9.37;52.11
50702;BME280;36670;50.094;8.496;2023-05-03T01:00:49;101399.06;;;9.27;52.36
50702;BME280;36670;50.094;8.496;2023-05-03T01:03:15;101395.66;;;9.32;52.40
50702;BME280;36670;50.094;8.496;2023-05-03T01:05:58;101395.41;;;9.33;52.38
50702;BME280;36670;50.094;8.496;2023-05-03T01:11:24;101395.50;;;9.07;52.89
50702;BME280;36670;50.094;8.496;2023-05-03T01:14:04;101393.78;;;9.19;52.17
50702;BME280;36670;50.094;8.496;2023-05-03T01:16:38;101387.91;;;9.02;52.51
50702;BME280;36670;50.094;8.496;2023-05-03T01:19:12;101385.31;;;9.07;52.73
50702;BME280;36670;50.094;8.496;2023-05-03T01:21:46;101382.97;;;9.17;52.77
50702;BME280;36670;50.094;8.496;2023-05-03T01:24:21;101375.34;;;9.19;52.48
50702;BME280;36670;50.094;8.496;2023-05-03T01:26:48;101384.41;;;9.33;52.01
50702;BME280;36670;50.094;8.496;2023-05-03T01:29:13;101381.75;;;9.07;52.33
50702;BME280;36670;50.094;8.496;2023-05-03T01:31:52;101390.06;;;8.80;53.06
50702;BME280;36670;50.094;8.496;2023-05-03T01:34:44;101382.03;;;8.58;53.81
50702;BME280;36670;50.094;8.496;2023-05-03T01:37:13;101379.66;;;8.75;53.39
50702;BME280;36670;50.094;8.496;2023-05-03T01:39:58;101379.44;;;8.97;52.92
50702;BME280;36670;50.094;8.496;2023-05-03T01:42:25;101368.19;;;9.05;52.59
50702;BME280;36670;50.094;8.496;2023-05-03T01:44:52;101370.53;;;8.95;52.52
50702;BME280;36670;50.094;8.496;2023-05-03T01:47:17;101372.78;;;9.25;51.59
50702;BME280;36670;50.094;8.496;2023-05-03T01:49:43;101372.66;;;8.93;52.25
50702;BME280;36670;50.094;8.496;2023-05-03T01:52:08;101360.97;;;9.11;51.90
50702;BME280;36670;50.094;8.496;2023-05-03T01:54:33;101367.81;;;8.81;52.33
50702;BME280;36670;50.094;8.496;2023-05-03T01:56:58;101375.03;;;8.82;52.27
50702;BME280;36670;50.094;8.496;2023-05-03T01:59:24;101373.56;;;8.53;52.79
50702;BME280;36670;50.094;8.496;2023-05-03T02:01:49;101373.97;;;8.36;53.70
50702;BME280;36670;50.094;8.496;2023-05-03T02:04:14;101384.38;;;8.54;53.22
50702;BME280;36670;50.094;8.496;2023-05-03T02:06:39;101377.16;;;8.53;53.05
50702;BME280;36670;50.094;8.496;2023-05-03T02:09:05;101382.41;;;8.88;52.12
50702;BME280;36670;50.094;8.496;2023-05-03T02:11:30;101377.28;;;9.12;51.43
50702;BME280;36670;50.094;8.496;2023-05-03T02:13:55;101378.41;;;8.78;52.03
50702;BME280;36670;50.094;8.496;2023-05-03T02:16:20;101376.50;;;8.71;52.72
50702;BME280;36670;50.094;8.496;2023-05-03T02:18:46;101382.66;;;8.67;52.61
50702;BME280;36670;50.094;8.496;2023-05-03T02:21:11;101390.91;;;8.80;52.62
50702;BME280;36670;50.094;8.496;2023-05-03T02:23:37;101386.88;;;8.90;52.32
50702;BME280;36670;50.094;8.496;2023-05-03T02:26:02;101394.47;;;8.87;51.75
50702;BME280;36670;50.094;8.496;2023-05-03T02:28:28;101391.53;;;8.42;52.91
50702;BME280;36670;50.094;8.496;2023-05-03T02:30:53;101400.03;;;8.61;52.38
50702;BME280;36670;50.094;8.496;2023-05-03T02:33:18;101405.09;;;8.84;52.14
50702;BME280;36670;50.094;8.496;2023-05-03T02:35:43;101408.44;;;9.06;51.97
50702;BME280;36670;50.094;8.496;2023-05-03T02:38:09;101401.84;;;9.14;51.32
50702;BME280;36670;50.094;8.496;2023-05-03T02:40:34;101409.75;;;8.83;51.79
50702;BME280;36670;50.094;8.496;2023-05-03T02:42:59;101402.53;;;8.89;51.22
50702;BME280;36670;50.094;8.496;2023-05-03T02:45:26;101404.00;;;9.05;51.18
50702;BME280;36670;50.094;8.496;2023-05-03T02:47:51;101399.56;;;8.97;51.04
50702;BME280;36670;50.094;8.496;2023-05-03T02:50:17;101391.25;;;9.17;51.27
50702;BME280;36670;50.094;8.496;2023-05-03T02:52:42;101391.84;;;9.26;51.06
50702;BME280;36670;50.094;8.496;2023-05-03T02:55:08;101394.31;;;8.82;51.73
50702;BME280;36670;50.094;8.496;2023-05-03T02:57:33;101383.88;;;8.98;51.57
50702;BME280;36670;50.094;8.496;2023-05-03T02:59:58;101397.16;;;9.14;51.13
50702;BME280;36670;50.094;8.496;2023-05-03T03:02:23;101380.22;;;9.17;50.68
50702;BME280;36670;50.094;8.496;2023-05-03T03:04:49;101370.28;;;9.10;51.02
50702;BME280;36670;50.094;8.496;2023-05-03T03:07:14;101389.56;;;9.10;51.03
50702;BME280;36670;50.094;8.496;2023-05-03T03:09:39;101382.41;;;9.54;50.58
50702;BME280;36670;50.094;8.496;2023-05-03T03:12:04;101388.19;;;9.84;49.78
50702;BME280;36670;50.094;8.496;2023-05-03T03:14:30;101379.94;;;9.84;50.10
50702;BME280;36670;50.094;8.496;2023-05-03T03:16:55;101385.69;;;9.76;49.79
50702;BME280;36670;50.094;8.496;2023-05-03T03:19:20;101389.28;;;9.77;49.87
50702;BME280;36670;50.094;8.496;2023-05-03T03:21:46;101389.28;;;9.31;50.87
50702;BME280;36670;50.094;8.496;2023-05-03T03:24:11;101388.38;;;9.44;50.46
50702;BME280;36670;50.094;8.496;2023-05-03T03:26:36;101386.59;;;9.11;51.14
50702;BME280;36670;50.094;8.496;2023-05-03T03:29:01;101377.00;;;9.27;50.54
50702;BME280;36670;50.094;8.496;2023-05-03T03:31:27;101375.75;;;9.30;50.75
50702;BME280;36670;50.094;8.496;2023-05-03T03:33:52;101385.50;;;9.26;51.43
50702;BME280;36670;50.094;8.496;2023-05-03T03:36:17;101380.16;;;9.31;51.12
50702;BME280;36670;50.094;8.496;2023-05-03T03:38:42;101374.03;;;9.29;50.94
50702;BME280;36670;50.094;8.496;2023-05-03T03:41:08;101370.13;;;9.50;50.06
50702;BME280;36670;50.094;8.496;2023-05-03T03:43:33;101379.44;;;8.97;51.28
50702;BME280;36670;50.094;8.496;2023-05-03T03:45:58;101383.28;;;8.56;52.27
50702;BME280;36670;50.094;8.496;2023-05-03T03:48:24;101382.03;;;8.58;52.66
50702;BME280;36670;50.094;8.496;2023-05-03T03:50:49;101383.69;;;8.73;52.55
50702;BME280;36670;50.094;8.496;2023-05-03T03:53:15;101382.63;;;8.87;51.80
50702;BME280;36670;50.094;8.496;2023-05-03T03:55:40;101386.25;;;8.74;52.52
50702;BME280;36670;50.094;8.496;2023-05-03T03:58:06;101379.88;;;8.94;52.10
50702;BME280;36670;50.094;8.496;2023-05-03T04:00:32;101392.78;;;8.86;52.22
50702;BME280;36670;50.094;8.496;2023-05-03T04:02:57;101391.25;;;9.11;52.09
50702;BME280;36670;50.094;8.496;2023-05-03T04:05:23;101377.34;;;8.65;52.60
50702;BME280;36670;50.094;8.496;2023-05-03T04:07:48;101403.38;;;8.29;53.71
50702;BME280;36670;50.094;8.496;2023-05-03T04:10:14;101401.94;;;8.53;52.75
50702;BME280;36670;50.094;8.496;2023-05-03T04:12:39;101402.34;;;8.44;53.39
50702;BME280;36670;50.094;8.496;2023-05-03T04:15:05;101406.38;;;8.68;53.20
50702;BME280;36670;50.094;8.496;2023-05-03T04:17:30;101412.50;;;8.90;52.70
50702;BME280;36670;50.094;8.496;2023-05-03T04:19:57;101414.81;;;8.86;52.90
50702;BME280;36670;50.094;8.496;2023-05-03T04:22:22;101408.13;;;9.48;52.32
50702;BME280;36670;50.094;8.496;2023-05-03T04:24:47;101407.63;;;10.35;51.27
50702;BME280;36670;50.094;8.496;2023-05-03T04:27:13;101410.25;;;11.17;50.10
50702;BME280;36670;50.094;8.496;2023-05-03T04:29:38;101406.88;;;11.71;49.85
50702;BME280;36670;50.094;8.496;2023-05-03T04:32:04;101409.09;;;11.92;49.10
50702;BME280;36670;50.094;8.496;2023-05-03T04:34:30;101416.47;;;11.31;49.07
50702;BME280;36670;50.094;8.496;2023-05-03T04:36:56;101421.03;;;11.44;48.12
50702;BME280;36670;50.094;8.496;2023-05-03T04:39:22;101417.03;;;11.40;47.80
50702;BME280;36670;50.094;8.496;2023-05-03T04:41:48;101413.56;;;11.44;47.68
50702;BME280;36670;50.094;8.496;2023-05-03T04:44:13;101422.44;;;10.91;48.36
50702;BME280;36670;50.094;8.496;2023-05-03T04:46:38;101412.81;;;10.75;48.88
50702;BME280;36670;50.094;8.496;2023-05-03T04:49:04;101421.19;;;11.12;47.88
50702;BME280;36670;50.094;8.496;2023-05-03T04:51:29;101429.09;;;10.83;48.38
50702;BME280;36670;50.094;8.496;2023-05-03T04:53:57;101414.72;;;11.18;47.68
50702;BME280;36670;50.094;8.496;2023-05-03T04:56:22;101415.19;;;11.15;47.96
50702;BME280;36670;50.094;8.496;2023-05-03T04:58:53;101413.09;;;11.48;47.81
50702;BME280;36670;50.094;8.496;2023-05-03T05:01:18;101411.50;;;11.58;46.78
50702;BME280;36670;50.094;8.496;2023-05-03T05:03:50;101424.78;;;11.13;48.16
50702;BME280;36670;50.094;8.496;2023-05-03T05:06:15;101424.47;;;10.52;48.90
50702;BME280;36670;50.094;8.496;2023-05-03T05:08:40;101421.38;;;10.41;49.41
50702;BME280;36670;50.094;8.496;2023-05-03T05:11:05;101423.38;;;10.59;49.11
50702;BME280;36670;50.094;8.496;2023-05-03T05:13:32;101428.59;;;10.68;48.98
50702;BME280;36670;50.094;8.496;2023-05-03T05:15:57;101424.81;;;10.87;49.09
50702;BME280;36670;50.094;8.496;2023-05-03T05:18:22;101430.06;;;11.14;48.42
50702;BME280;36670;50.094;8.496;2023-05-03T05:20:47;101421.59;;;11.09;48.65
50702;BME280;36670;50.094;8.496;2023-05-03T05:23:13;101413.41;;;11.88;47.65
50702;BME280;36670;50.094;8.496;2023-05-03T05:25:38;101413.44;;;13.08;46.21
50702;BME280;36670;50.094;8.496;2023-05-03T05:28:03;101409.91;;;14.35;43.26
50702;BME280;36670;50.094;8.496;2023-05-03T05:30:29;101410.09;;;14.79;43.39
50702;BME280;36670;50.094;8.496;2023-05-03T05:32:54;101410.53;;;15.27;41.90
50702;BME280;36670;50.094;8.496;2023-05-03T05:35:19;101409.44;;;15.73;40.62
50702;BME280;36670;50.094;8.496;2023-05-03T05:37:44;101416.50;;;16.02;39.56
50702;BME280;36670;50.094;8.496;2023-05-03T05:40:10;101426.34;;;15.44;39.63
50702;BME280;36670;50.094;8.496;2023-05-03T05:42:36;101406.53;;;15.62;38.63
50702;BME280;36670;50.094;8.496;2023-05-03T05:45:01;101420.34;;;15.74;38.99
50702;BME280;36670;50.094;8.496;2023-05-03T05:47:27;101403.03;;;16.21;37.65
50702;BME280;36670;50.094;8.496;2023-05-03T05:49:53;101413.66;;;15.97;37.59
50702;BME280;36670;50.094;8.496;2023-05-03T05:52:18;101409.06;;;16.41;38.13
50702;BME280;36670;50.094;8.496;2023-05-03T05:54:44;101410.22;;;16.45;37.07
50702;BME280;36670;50.094;8.496;2023-05-03T05:57:09;101411.31;;;15.89;36.80
50702;BME280;36670;50.094;8.496;2023-05-03T05:59:34;101408.66;;;15.99;37.28
50702;BME280;36670;50.094;8.496;2023-05-03T06:02:00;101416.81;;;15.17;38.13
50702;BME280;36670;50.094;8.496;2023-05-03T06:04:25;101413.16;;;14.95;38.66
50702;BME280;36670;50.094;8.496;2023-05-03T06:06:51;101418.19;;;15.37;38.62
50702;BME280;36670;50.094;8.496;2023-05-03T06:09:16;101409.75;;;15.76;37.66
50702;BME280;36670;50.094;8.496;2023-05-03T06:11:41;101406.72;;;16.00;37.50
50702;BME280;36670;50.094;8.496;2023-05-03T06:14:07;101411.06;;;15.91;37.83
50702;BME280;36670;50.094;8.496;2023-05-03T06:16:35;101406.38;;;16.51;37.00
50702;BME280;36670;50.094;8.496;2023-05-03T06:19:00;101398.19;;;16.39;36.24
50702;BME280;36670;50.094;8.496;2023-05-03T06:21:26;101401.56;;;16.14;37.03
50702;BME280;36670;50.094;8.496;2023-05-03T06:23:51;101413.53;;;15.87;36.93
50702;BME280;36670;50.094;8.496;2023-05-03T06:26:16;101415.13;;;16.05;36.62
50702;BME280;36670;50.094;8.496;2023-05-03T06:28:42;101418.47;;;16.67;36.35
50702;BME280;36670;50.094;8.496;2023-05-03T06:31:07;101427.78;;;16.45;36.74
50702;BME280;36670;50.094;8.496;2023-05-03T06:33:32;101425.69;;;16.03;35.96
50702;BME280;36670;50.094;8.496;2023-05-03T06:35:57;101433.00;;;15.65;37.45
50702;BME280;36670;50.094;8.496;2023-05-03T06:38:23;101426.00;;;15.01;38.77
50702;BME280;36670;50.094;8.496;2023-05-03T06:40:48;101434.13;;;14.23;39.78
50702;BME280;36670;50.094;8.496;2023-05-03T06:43:15;101435.84;;;13.83;40.66
50702;BME280;36670;50.094;8.496;2023-05-03T06:45:41;101431.50;;;13.46;40.98
50702;BME280;36670;50.094;8.496;2023-05-03T06:48:07;101437.28;;;12.86;42.10
50702;BME280;36670;50.094;8.496;2023-05-03T06:50:33;101430.31;;;12.95;42.24
50702;BME280;36670;50.094;8.496;2023-05-03T06:52:58;101432.72;;;12.91;41.98
50702;BME280;36670;50.094;8.496;2023-05-03T06:55:23;101425.31;;;12.50;42.92
50702;BME280;36670;50.094;8.496;2023-05-03T06:57:48;101423.84;;;12.23;43.48
50702;BME280;36670;50.094;8.496;2023-05-03T07:00:16;101422.41;;;12.33;43.41
50702;BME280;36670;50.094;8.496;2023-05-03T07:02:42;101411.13;;;12.58;43.55
50702;BME280;36670;50.094;8.496;2023-05-03T07:05:07;101420.78;;;12.13;44.59
50702;BME280;36670;50.094;8.496;2023-05-03T07:07:32;101419.19;;;12.05;45.58
50702;BME280;36670;50.094;8.496;2023-05-03T07:09:58;101411.63;;;12.12;44.45
50702;BME280;36670;50.094;8.496;2023-05-03T07:12:23;101410.78;;;12.12;45.31
50702;BME280;36670;50.094;8.496;2023-05-03T07:14:52;101412.56;;;12.06;46.05
50702;BME280;36670;50.094;8.496;2023-05-03T07:17:17;101416.94;;;12.68;44.70
50702;BME280;36670;50.094;8.496;2023-05-03T07:19:42;101416.06;;;12.91;44.10
50702;BME280;36670;50.094;8.496;2023-05-03T07:22:08;101418.03;;;12.79;43.90
50702;BME280;36670;50.094;8.496;2023-05-03T07:24:33;101411.00;;;13.36;43.25
50702;BME280;36670;50.094;8.496;2023-05-03T07:26:58;101416.69;;;13.41;42.80
50702;BME280;36670;50.094;8.496;2023-05-03T07:29:23;101415.56;;;13.30;43.79
50702;BME280;36670;50.094;8.496;2023-05-03T07:31:49;101426.47;;;12.96;43.59
50702;BME280;36670;50.094;8.496;2023-05-03T07:34:14;101421.28;;;12.88;43.84
50702;BME280;36670;50.094;8.496;2023-05-03T07:36:39;101422.72;;;12.67;44.14
50702;BME280;36670;50.094;8.496;2023-05-03T07:39:05;101422.47;;;12.80;44.02
50702;BME280;36670;50.094;8.496;2023-05-03T07:41:31;101420.81;;;12.79;44.96
50702;BME280;36670;50.094;8.496;2023-05-03T07:43:56;101422.09;;;12.64;43.84
50702;BME280;36670;50.094;8.496;2023-05-03T07:46:22;101419.47;;;12.70;44.76
50702;BME280;36670;50.094;8.496;2023-05-03T07:48:47;101414.03;;;12.87;44.78
50702;BME280;36670;50.094;8.496;2023-05-03T07:51:13;101419.34;;;13.24;43.63
50702;BME280;36670;50.094;8.496;2023-05-03T07:53:38;101409.81;;;13.43;43.59
50702;BME280;36670;50.094;8.496;2023-05-03T07:56:04;101413.06;;;13.40;43.55
50702;BME280;36670;50.094;8.496;2023-05-03T07:58:30;101401.19;;;13.57;43.36
50702;BME280;36670;50.094;8.496;2023-05-03T08:00:55;101398.03;;;13.65;43.65
50702;BME280;36670;50.094;8.496;2023-05-03T08:03:21;101396.06;;;14.23;41.78
50702;BME280;36670;50.094;8.496;2023-05-03T08:05:46;101397.81;;;14.12;42.32
50702;BME280;36670;50.094;8.496;2023-05-03T08:08:12;101392.38;;;14.51;42.03
50702;BME280;36670;50.094;8.496;2023-05-03T08:10:38;101392.22;;;14.58;41.72
50702;BME280;36670;50.094;8.496;2023-05-03T08:13:03;101401.50;;;14.47;41.50
50702;BME280;36670;50.094;8.496;2023-05-03T08:15:30;101400.84;;;14.11;42.35
50702;BME280;36670;50.094;8.496;2023-05-03T08:17:55;101393.19;;;14.01;42.48
50702;BME280;36670;50.094;8.496;2023-05-03T08:20:24;101394.44;;;13.93;42.27
50702;BME280;36670;50.094;8.496;2023-05-03T08:22:53;101397.16;;;14.22;43.39
50702;BME280;36670;50.094;8.496;2023-05-03T08:25:21;101402.34;;;14.81;41.81
50702;BME280;36670;50.094;8.496;2023-05-03T08:27:47;101396.06;;;15.08;40.84
50702;BME280;36670;50.094;8.496;2023-05-03T08:30:12;101384.09;;;14.68;41.20
50702;BME280;36670;50.094;8.496;2023-05-03T08:32:37;101389.66;;;14.68;41.69
50702;BME280;36670;50.094;8.496;2023-05-03T08:35:03;101391.59;;;14.22;41.86
50702;BME280;36670;50.094;8.496;2023-05-03T08:37:36;101398.00;;;14.68;42.25
50702;BME280;36670;50.094;8.496;2023-05-03T08:40:02;101403.78;;;14.84;42.17
50702;BME280;36670;50.094;8.496;2023-05-03T08:42:29;101396.38;;;15.29;40.33
50702;BME280;36670;50.094;8.496;2023-05-03T08:44:57;101390.03;;;15.33;40.82
50702;BME280;36670;50.094;8.496;2023-05-03T08:47:22;101382.66;;;15.66;40.02
50702;BME280;36670;50.094;8.496;2023-05-03T08:49:49;101398.63;;;14.93;41.06
50702;BME280;36670;50.094;8.496;2023-05-03T08:52:16;101394.38;;;14.85;41.31
50702;BME280;36670;50.094;8.496;2023-05-03T08:54:44;101392.13;;;15.04;40.01
50702;BME280;36670;50.094;8.496;2023-05-03T08:57:10;101395.50;;;14.55;41.11
50702;BME280;36670;50.094;8.496;2023-05-03T08:59:51;101400.31;;;14.94;40.92
50702;BME280;36670;50.094;8.496;2023-05-03T09:02:26;101398.75;;;15.20;40.76
50702;BME280;36670;50.094;8.496;2023-05-03T09:04:52;101402.13;;;14.66;41.25
50702;BME280;36670;50.094;8.496;2023-05-03T09:07:17;101404.78;;;14.95;40.69
50702;BME280;36670;50.094;8.496;2023-05-03T09:09:44;101399.41;;;15.27;40.79
50702;BME280;36670;50.094;8.496;2023-05-03T09:12:10;101391.97;;;15.55;41.20
50702;BME280;36670;50.094;8.496;2023-05-03T09:14:45;101391.09;;;15.77;40.13
50702;BME280;36670;50.094;8.496;2023-05-03T09:17:15;101391.47;;;15.80;40.40
50702;BME280;36670;50.094;8.496;2023-05-03T09:19:52;101385.81;;;15.53;40.06
50702;BME280;36670;50.094;8.496;2023-05-03T09:22:18;101386.66;;;15.31;40.87
50702;BME280;36670;50.094;8.496;2023-05-03T09:24:57;101373.94;;;15.80;40.31
50702;BME280;36670;50.094;8.496;2023-05-03T09:27:24;101369.38;;;16.28;39.40
50702;BME280;36670;50.094;8.496;2023-05-03T09:29:50;101365.25;;;16.68;39.94
50702;BME280;36670;50.094;8.496;2023-05-03T09:32:16;101362.13;;;16.60;38.69
50702;BME280;36670;50.094;8.496;2023-05-03T09:34:42;101365.69;;;16.23;39.06
50702;BME280;36670;50.094;8.496;2023-05-03T09:37:08;101364.56;;;15.91;39.67
50702;BME280;36670;50.094;8.496;2023-05-03T09:39:34;101366.00;;;15.94;39.94
50702;BME280;36670;50.094;8.496;2023-05-03T09:42:17;101362.75;;;16.02;40.33
50702;BME280;36670;50.094;8.496;2023-05-03T09:44:47;101355.94;;;16.20;39.09
50702;BME280;36670;50.094;8.496;2023-05-03T09:47:13;101348.38;;;16.15;39.71
50702;BME280;36670;50.094;8.496;2023-05-03T09:49:39;101345.19;;;16.34;39.36
50702;BME280;36670;50.094;8.496;2023-05-03T09:52:04;101360.59;;;16.09;38.89
50702;BME280;36670;50.094;8.496;2023-05-03T09:54:31;101348.13;;;16.49;39.19
50702;BME280;36670;50.094;8.496;2023-05-03T09:56:56;101348.41;;;16.91;38.33
50702;BME280;36670;50.094;8.496;2023-05-03T09:59:23;101346.69;;;16.84;37.15
50702;BME280;36670;50.094;8.496;2023-05-03T10:01:52;101342.16;;;16.41;38.10
50702;BME280;36670;50.094;8.496;2023-05-03T10:04:21;101338.69;;;16.98;38.63
50702;BME280;36670;50.094;8.496;2023-05-03T10:06:49;101330.81;;;17.43;38.46
50702;BME280;36670;50.094;8.496;2023-05-03T10:09:31;101330.88;;;17.69;37.49
50702;BME280;36670;50.094;8.496;2023-05-03T10:12:03;101333.75;;;17.95;36.29
50702;BME280;36670;50.094;8.496;2023-05-03T10:14:30;101341.53;;;17.87;37.41
50702;BME280;36670;50.094;8.496;2023-05-03T10:17:00;101315.69;;;17.34;37.24
50702;BME280;36670;50.094;8.496;2023-05-03T10:22:07;101328.47;;;18.29;36.18
50702;BME280;36670;50.094;8.496;2023-05-03T10:24:34;101328.47;;;18.24;36.57
50702;BME280;36670;50.094;8.496;2023-05-03T10:27:00;101322.31;;;18.17;35.40
50702;BME280;36670;50.094;8.496;2023-05-03T10:32:05;101337.13;;;18.17;33.80
50702;BME280;36670;50.094;8.496;2023-05-03T10:37:27;101328.66;;;17.76;34.51
50702;BME280;36670;50.094;8.496;2023-05-03T10:39:53;101329.28;;;18.09;35.18
50702;BME280;36670;50.094;8.496;2023-05-03T10:42:21;101319.22;;;18.49;34.81
50702;BME280;36670;50.094;8.496;2023-05-03T10:44:51;101329.59;;;18.33;34.95
50702;BME280;36670;50.094;8.496;2023-05-03T10:47:23;101327.56;;;17.87;35.76
50702;BME280;36670;50.094;8.496;2023-05-03T10:55:15;101316.50;;;17.19;36.61
50702;BME280;36670;50.094;8.496;2023-05-03T10:57:43;101317.06;;;17.31;36.45
50702;BME280;36670;50.094;8.496;2023-05-03T11:00:15;101311.75;;;17.30;36.06
50702;BME280;36670;50.094;8.496;2023-05-03T11:05:47;101308.03;;;17.87;34.25
50702;BME280;36670;50.094;8.496;2023-05-03T11:08:30;101306.34;;;17.86;34.97
50702;BME280;36670;50.094;8.496;2023-05-03T11:11:02;101301.91;;;18.01;35.61
50702;BME280;36670;50.094;8.496;2023-05-03T11:13:29;101294.88;;;17.88;34.79
50702;BME280;36670;50.094;8.496;2023-05-03T11:15:55;101308.56;;;17.84;34.54
50702;BME280;36670;50.094;8.496;2023-05-03T11:18:20;101291.84;;;18.05;34.04
50702;BME280;36670;50.094;8.496;2023-05-03T11:20:46;101288.78;;;18.01;34.88
50702;BME280;36670;50.094;8.496;2023-05-03T11:23:12;101290.72;;;18.47;34.54
50702;BME280;36670;50.094;8.496;2023-05-03T11:25:37;101280.66;;;18.46;34.84
50702;BME280;36670;50.094;8.496;2023-05-03T11:28:03;101275.25;;;18.96;34.09
50702;BME280;36670;50.094;8.496;2023-05-03T11:30:32;101274.06;;;19.07;33.99
50702;BME280;36670;50.094;8.496;2023-05-03T11:32:58;101263.31;;;19.30;32.37
50702;BME280;36670;50.094;8.496;2023-05-03T11:35:23;101266.56;;;19.53;32.58
50702;BME280;36670;50.094;8.496;2023-05-03T11:37:51;101272.41;;;19.56;32.85
50702;BME280;36670;50.094;8.496;2023-05-03T11:40:17;101270.38;;;19.17;31.31
50702;BME280;36670;50.094;8.496;2023-05-03T11:42:58;101268.16;;;19.14;32.34
50702;BME280;36670;50.094;8.496;2023-05-03T11:45:26;101264.16;;;19.31;31.77
50702;BME280;36670;50.094;8.496;2023-05-03T11:47:54;101265.28;;;19.30;31.09
50702;BME280;36670;50.094;8.496;2023-05-03T11:50:26;101259.03;;;18.93;31.24
50702;BME280;36670;50.094;8.496;2023-05-03T11:53:07;101250.75;;;18.36;32.95
50702;BME280;36670;50.094;8.496;2023-05-03T11:55:32;101258.00;;;18.53;32.59
50702;BME280;36670;50.094;8.496;2023-05-03T11:57:59;101247.25;;;18.91;31.15
50702;BME280;36670;50.094;8.496;2023-05-03T12:00:25;101249.59;;;18.58;29.81
50702;BME280;36670;50.094;8.496;2023-05-03T12:02:50;101239.59;;;19.12;29.46
50702;BME280;36670;50.094;8.496;2023-05-03T12:05:15;101231.34;;;18.91;29.53
50702;BME280;36670;50.094;8.496;2023-05-03T12:07:41;101228.09;;;19.19;31.26
50702;BME280;36670;50.094;8.496;2023-05-03T12:10:17;101227.13;;;19.44;31.15
50702;BME280;36670;50.094;8.496;2023-05-03T12:12:53;101225.59;;;19.62;30.68
50702;BME280;36670;50.094;8.496;2023-05-03T12:17:58;101232.28;;;19.21;29.79
50702;BME280;36670;50.094;8.496;2023-05-03T12:20:24;101234.41;;;18.74;30.43
50702;BME280;36670;50.094;8.496;2023-05-03T12:22:54;101232.66;;;19.04;30.13
50702;BME280;36670;50.094;8.496;2023-05-03T12:25:20;101222.47;;;19.29;30.26
50702;BME280;36670;50.094;8.496;2023-05-03T12:27:46;101217.63;;;19.40;30.74
50702;BME280;36670;50.094;8.496;2023-05-03T12:30:11;101215.69;;;19.35;30.67
50702;BME280;36670;50.094;8.496;2023-05-03T12:32:37;101222.75;;;19.67;30.93
50702;BME280;36670;50.094;8.496;2023-05-03T12:35:04;101214.69;;;20.00;30.14
50702;BME280;36670;50.094;8.496;2023-05-03T12:37:29;101210.88;;;20.15;30.90
50702;BME280;36670;50.094;8.496;2023-05-03T12:39:55;101214.84;;;20.14;30.02
50702;BME280;36670;50.094;8.496;2023-05-03T12:42:21;101213.00;;;20.28;29.82
50702;BME280;36670;50.094;8.496;2023-05-03T12:44:46;101200.41;;;20.26;29.75
50702;BME280;36670;50.094;8.496;2023-05-03T12:47:11;101198.25;;;20.18;29.40
50702;BME280;36670;50.094;8.496;2023-05-03T12:49:37;101204.34;;;19.95;28.97
50702;BME280;36670;50.094;8.496;2023-05-03T12:52:02;101194.72;;;20.36;29.40
50702;BME280;36670;50.094;8.496;2023-05-03T12:54:28;101197.13;;;20.19;29.53
50702;BME280;36670;50.094;8.496;2023-05-03T12:56:53;101194.22;;;20.00;30.73
50702;BME280;36670;50.094;8.496;2023-05-03T12:59:19;101185.09;;;19.89;31.35
50702;BME280;36670;50.094;8.496;2023-05-03T13:01:44;101185.41;;;20.11;31.47
50702;BME280;36670;50.094;8.496;2023-05-03T13:04:09;101181.91;;;20.25;31.41
50702;BME280;36670;50.094;8.496;2023-05-03T13:06:35;101180.41;;;20.08;31.30
50702;BME280;36670;50.094;8.496;2023-05-03T13:09:02;101173.75;;;19.99;30.74
50702;BME280;36670;50.094;8.496;2023-05-03T13:11:28;101168.41;;;20.03;31.36